Home   Weather   Kostrzyn nad Odrą   Past weeks
Flag for Poland

Past Weather in Kostrzyn nad Odrą, Poland — April 2017

Currently: 35 °F. Chilly. (Weather station: Gorzow Wlkp, Poland). See more current weather

April 2017 Weather in Kostrzyn nad Odrą — Graph

°F

High & Low Weather Summary for April 2017

 TemperatureHumidityPressure
High75 °F (Apr 1, 4:00 pm)97% (Apr 3, 6:00 am)30.57 "Hg (Apr 3, 6:00 am)
Low27 °F (Apr 20, 6:00 am)28% (Apr 1, 2:00 pm)29.55 "Hg (Apr 25, 10:00 am)
Average46 °F72%30.03 "Hg
* Reported Apr 1 12:00 am — Apr 30 11:00 pm, Kostrzyn nad Odrą. Weather by CustomWeather, © 2022

Note: Actual official high and low records may vary slightly from our data, if they occured in-between our weather recording intervals... More about our weather records

Kostrzyn nad Odrą Weather History for April 1, 2017

Scroll right to see more
 ConditionsComfort  
Time TempWeatherWind HumidityBarometerVisibility
12:00 am
Sat, Apr 1
57 °FClear.1 mph66%29.94 "Hg22 mi
1:00 am56 °FClear.2 mph67%29.93 "Hg22 mi
2:00 am55 °FClear.2 mph68%29.92 "Hg19 mi
3:00 am54 °FPassing clouds.2 mph70%29.90 "Hg19 mi
4:00 am53 °FPassing clouds.2 mph74%29.90 "Hg19 mi
5:00 am52 °FClear.2 mph76%29.90 "Hg16 mi
6:00 am51 °FClear.2 mph78%29.89 "Hg16 mi
7:00 am51 °FScattered clouds.2 mph78%29.89 "Hg16 mi
8:00 am51 °FOvercast.1 mph79%29.90 "Hg16 mi
9:00 am53 °FOvercast.2 mph75%29.90 "Hg12 mi
10:00 am59 °FPartly sunny.2 mph65%29.91 "Hg16 mi
11:00 am62 °FPartly sunny.2 mph57%29.90 "Hg16 mi
12:00 pm67 °FScattered clouds.2 mph47%29.89 "Hg16 mi
1:00 pm71 °FScattered clouds.2 mph41%29.88 "Hg19 mi
2:00 pm73 °FPartly sunny.2 mph28%29.87 "Hg19 mi
3:00 pm74 °FScattered clouds.2 mph32%29.85 "Hg19 mi
4:00 pm75 °FPassing clouds.1 mph28%29.84 "Hg19 mi
5:00 pm75 °FPassing clouds.1 mph29%29.82 "Hg19 mi
6:00 pm74 °FPassing clouds.2 mph30%29.82 "Hg19 mi
7:00 pm72 °FPassing clouds.1 mph30%29.82 "Hg19 mi
8:00 pm65 °FPassing clouds.2 mph50%29.84 "Hg19 mi
9:00 pm63 °FPassing clouds.3 mph53%29.84 "Hg19 mi
10:00 pm60 °FPassing clouds.2 mph63%29.85 "Hg16 mi
11:00 pm57 °FPassing clouds.2 mph73%29.85 "Hg16 mi
Weather by CustomWeather, © 2022

See weather overview